createdAt,value
2022-09-07T00:02:06.819Z,28.10
2022-09-07T00:04:34.266Z,23.10
2022-09-07T00:07:01.204Z,25.83
2022-09-07T00:09:29.132Z,28.27
2022-09-07T00:11:56.159Z,26.00
2022-09-07T00:14:23.046Z,26.97
2022-09-07T00:16:49.945Z,26.37
2022-09-07T00:19:17.056Z,27.27
2022-09-07T00:21:44.012Z,27.87
2022-09-07T00:24:10.962Z,27.93
2022-09-07T00:26:38.262Z,26.97
2022-09-07T00:29:06.422Z,24.67
2022-09-07T00:31:33.819Z,30.17
2022-09-07T00:34:02.344Z,28.63
2022-09-07T00:36:29.849Z,28.93
2022-09-07T00:38:56.839Z,24.17
2022-09-07T00:41:24.487Z,30.37
2022-09-07T00:43:56.061Z,29.23
2022-09-07T00:46:24.670Z,26.23
2022-09-07T00:49:09.056Z,29.38
2022-09-07T00:52:03.523Z,27.00
2022-09-07T00:54:39.174Z,30.43
2022-09-07T00:57:06.959Z,24.93
2022-09-07T00:59:39.465Z,26.40
2022-09-07T01:02:06.692Z,26.97
2022-09-07T01:04:35.095Z,28.83
2022-09-07T01:07:03.293Z,26.25
2022-09-07T01:09:31.047Z,22.40
2022-09-07T01:12:00.897Z,30.33
2022-09-07T01:14:34.911Z,26.30
2022-09-07T01:17:19.181Z,34.67
2022-09-07T01:20:15.430Z,27.97
2022-09-07T01:22:56.113Z,33.73
2022-09-07T01:25:50.728Z,34.10
2022-09-07T01:28:17.571Z,28.93
2022-09-07T01:30:56.101Z,24.77
2022-09-07T01:33:45.098Z,25.38
2022-09-07T01:36:18.962Z,42.70
2022-09-07T01:38:53.511Z,27.07
2022-09-07T01:41:39.182Z,27.20
2022-09-07T01:44:06.032Z,29.17
2022-09-07T01:46:42.375Z,26.30
2022-09-07T01:49:18.040Z,30.63
2022-09-07T01:51:48.568Z,31.80
2022-09-07T01:54:22.551Z,27.70
2022-09-07T01:56:56.300Z,26.87
2022-09-07T01:59:38.614Z,23.37
2022-09-07T02:02:41.271Z,25.80
2022-09-07T02:05:14.207Z,27.87
2022-09-07T02:08:01.346Z,36.57
2022-09-07T02:10:41.824Z,30.67
2022-09-07T02:13:35.204Z,25.07
2022-09-07T02:16:16.556Z,28.53
2022-09-07T02:18:46.933Z,27.37
2022-09-07T02:21:19.982Z,28.10
2022-09-07T02:23:52.019Z,25.50
2022-09-07T02:26:22.492Z,27.80
2022-09-07T02:28:50.721Z,28.13
2022-09-07T02:31:18.258Z,30.97
2022-09-07T02:33:45.339Z,27.43
2022-09-07T02:36:15.512Z,31.47
2022-09-07T02:38:42.442Z,27.73
2022-09-07T02:41:28.258Z,25.43
2022-09-07T02:43:55.591Z,29.90
2022-09-07T02:46:36.547Z,29.80
2022-09-07T02:49:32.272Z,27.00
2022-09-07T02:52:05.044Z,26.33
2022-09-07T02:54:44.189Z,28.70
2022-09-07T02:57:38.931Z,30.15
2022-09-07T03:00:13.622Z,25.13
2022-09-07T03:02:55.717Z,29.13
2022-09-07T03:05:44.637Z,26.90
2022-09-07T03:08:20.532Z,27.55
2022-09-07T03:10:49.043Z,25.93
2022-09-07T03:13:34.453Z,27.67
2022-09-07T03:16:01.873Z,28.03
2022-09-07T03:18:29.373Z,25.77
2022-09-07T03:20:56.449Z,25.77
2022-09-07T03:23:23.886Z,27.20
2022-09-07T03:25:51.178Z,27.67
2022-09-07T03:28:18.212Z,27.37
2022-09-07T03:30:47.588Z,30.37
2022-09-07T03:35:46.000Z,21.40
2022-09-07T03:38:13.398Z,30.45
2022-09-07T03:40:40.426Z,24.90
2022-09-07T03:43:07.305Z,23.83
2022-09-07T03:45:34.541Z,27.60
2022-09-07T03:48:01.563Z,28.87
2022-09-07T03:50:29.262Z,29.53
2022-09-07T03:52:56.470Z,27.40
2022-09-07T03:55:23.439Z,24.87
2022-09-07T03:57:50.280Z,29.27
2022-09-07T04:00:17.510Z,26.23
2022-09-07T04:02:44.371Z,26.33
2022-09-07T04:05:11.717Z,27.63
2022-09-07T04:07:38.893Z,26.17
2022-09-07T04:10:06.061Z,26.40
2022-09-07T04:12:32.921Z,22.97
2022-09-07T04:15:00.039Z,25.93
2022-09-07T04:17:26.917Z,26.43
2022-09-07T04:19:53.739Z,24.87
2022-09-07T04:22:20.831Z,22.90
2022-09-07T04:24:47.719Z,26.37
2022-09-07T04:27:14.551Z,23.83
2022-09-07T04:29:41.624Z,27.27
2022-09-07T04:32:12.362Z,27.80
2022-09-07T04:34:42.207Z,24.87
2022-09-07T04:37:09.061Z,28.07
2022-09-07T04:39:35.944Z,29.23
2022-09-07T04:42:03.111Z,27.67
2022-09-07T04:44:30.004Z,28.57
2022-09-07T04:46:56.887Z,27.53
2022-09-07T04:49:24.047Z,25.60
2022-09-07T04:51:52.139Z,23.23
2022-09-07T04:54:19.036Z,21.77
2022-09-07T04:56:46.165Z,26.40
2022-09-07T04:59:13.042Z,26.60
2022-09-07T05:01:40.173Z,25.60
2022-09-07T05:04:07.312Z,24.47
2022-09-07T05:06:34.697Z,26.83
2022-09-07T05:09:01.584Z,18.35
2022-09-07T05:11:30.022Z,21.33
2022-09-07T05:14:01.859Z,22.92
2022-09-07T05:16:29.760Z,22.38
2022-09-07T05:18:59.809Z,27.13
2022-09-07T05:21:29.863Z,25.40
2022-09-07T05:23:58.279Z,24.05
2022-09-07T05:26:28.375Z,25.00
2022-09-07T05:31:43.036Z,23.50
2022-09-07T05:36:57.877Z,20.48
2022-09-07T05:39:24.900Z,19.65
2022-09-07T05:41:51.803Z,21.67
2022-09-07T05:47:06.197Z,21.55
2022-09-07T05:49:33.420Z,19.15
2022-09-07T05:52:00.390Z,25.88
2022-09-07T05:54:27.453Z,27.73
2022-09-07T05:56:54.509Z,27.98
2022-09-07T05:59:21.354Z,23.85
2022-09-07T06:01:48.289Z,18.90
2022-09-07T06:04:15.383Z,21.50
2022-09-07T06:06:47.841Z,20.88
2022-09-07T06:09:30.349Z,19.73
2022-09-07T06:11:57.459Z,21.63
2022-09-07T06:14:25.085Z,26.13
2022-09-07T06:16:52.205Z,17.55
2022-09-07T06:19:19.128Z,15.25
2022-09-07T06:21:46.002Z,22.52
2022-09-07T06:24:13.212Z,18.17
2022-09-07T06:26:40.066Z,20.38
2022-09-07T06:29:06.983Z,25.15
2022-09-07T06:31:34.567Z,18.88
2022-09-07T06:34:01.671Z,24.80
2022-09-07T06:36:29.168Z,22.02
2022-09-07T06:38:59.148Z,17.52
2022-09-07T06:44:16.081Z,21.30
2022-09-07T06:49:30.280Z,18.10
2022-09-07T06:51:57.200Z,21.08
2022-09-07T06:57:11.182Z,16.45
2022-09-07T06:59:38.918Z,15.73
2022-09-07T07:02:06.525Z,16.23
2022-09-07T07:04:39.394Z,20.42
2022-09-07T07:07:09.458Z,19.05
2022-09-07T07:09:36.737Z,22.73
2022-09-07T07:12:04.010Z,18.95
2022-09-07T07:14:33.774Z,21.92
2022-09-07T07:17:02.847Z,19.38
2022-09-07T07:19:29.743Z,22.40
2022-09-07T07:24:43.713Z,23.23
2022-09-07T07:27:10.577Z,14.65
2022-09-07T07:29:37.431Z,18.60
2022-09-07T07:32:04.584Z,14.93
2022-09-07T07:34:31.566Z,12.60
2022-09-07T07:36:58.513Z,16.80
2022-09-07T07:42:12.591Z,12.93
2022-09-07T07:44:39.676Z,16.40
2022-09-07T07:47:06.693Z,11.85
2022-09-07T07:49:33.868Z,12.40
2022-09-07T07:54:48.247Z,15.25
2022-09-07T07:57:17.009Z,16.48
2022-09-07T07:59:43.869Z,71.57
2022-09-07T08:02:15.867Z,31.17
2022-09-07T08:04:43.234Z,23.73
2022-09-07T08:07:12.175Z,20.70
2022-09-07T08:09:42.285Z,15.15
2022-09-07T08:12:12.352Z,17.10
2022-09-07T08:14:43.443Z,13.95
2022-09-07T08:17:12.317Z,12.57
2022-09-07T08:19:39.771Z,22.42
2022-09-07T08:22:07.967Z,21.13
2022-09-07T08:24:35.749Z,18.75
2022-09-07T08:27:02.873Z,9.88
2022-09-07T08:29:33.526Z,16.77
2022-09-07T08:32:06.865Z,12.27
2022-09-07T08:34:36.281Z,15.65
2022-09-07T08:37:04.081Z,15.00
2022-09-07T08:39:31.277Z,14.90
2022-09-07T08:42:19.173Z,12.27
2022-09-07T08:44:54.455Z,15.57
2022-09-07T08:47:27.986Z,12.25
2022-09-07T08:50:28.950Z,13.02
2022-09-07T08:53:08.461Z,13.45
2022-09-07T08:55:53.158Z,12.18
2022-09-07T08:58:48.123Z,14.20
2022-09-07T09:01:33.758Z,15.40
2022-09-07T09:04:18.005Z,12.45
2022-09-07T09:07:40.041Z,9.70
2022-09-07T09:10:13.881Z,9.27
2022-09-07T09:12:58.454Z,14.80
2022-09-07T09:15:32.323Z,13.25
2022-09-07T09:18:27.351Z,11.82
2022-09-07T09:20:56.881Z,13.77
2022-09-07T09:23:27.259Z,13.27
2022-09-07T09:26:01.392Z,10.25
2022-09-07T09:28:31.747Z,8.63
2022-09-07T09:30:59.475Z,10.23
2022-09-07T09:33:29.127Z,7.80
2022-09-07T09:36:00.231Z,13.98
2022-09-07T09:38:40.801Z,14.80
2022-09-07T09:41:10.599Z,13.13
2022-09-07T09:43:52.280Z,10.45
2022-09-07T09:46:27.412Z,18.45
2022-09-07T09:49:00.899Z,13.35
2022-09-07T09:54:53.894Z,10.75
2022-09-07T09:59:04.864Z,11.27
2022-09-07T10:00:35.343Z,10.15
2022-09-07T10:06:04.279Z,12.43
2022-09-07T10:08:33.428Z,9.73
2022-09-07T10:11:04.669Z,8.18
2022-09-07T10:13:41.983Z,12.95
2022-09-07T10:16:11.659Z,11.05
2022-09-07T10:18:41.898Z,12.60
2022-09-07T10:21:34.914Z,8.05
2022-09-07T10:24:04.945Z,11.95
2022-09-07T10:26:34.623Z,10.40
2022-09-07T10:29:16.806Z,13.25
2022-09-07T10:31:56.976Z,9.50
2022-09-07T10:34:38.978Z,11.15
2022-09-07T10:37:11.117Z,8.38
2022-09-07T10:39:44.012Z,7.70
2022-09-07T10:42:31.778Z,9.07
2022-09-07T10:44:58.516Z,8.10
2022-09-07T10:47:46.893Z,12.15
2022-09-07T10:50:42.898Z,6.70
2022-09-07T10:53:41.869Z,7.25
2022-09-07T10:56:11.993Z,8.55
2022-09-07T10:59:03.585Z,10.35
2022-09-07T11:01:42.795Z,8.70
2022-09-07T11:04:12.904Z,8.77
2022-09-07T11:06:41.851Z,10.00
2022-09-07T11:09:18.525Z,7.95
2022-09-07T11:12:09.938Z,8.60
2022-09-07T11:15:07.076Z,7.03
2022-09-07T11:17:41.678Z,5.82
2022-09-07T11:20:35.697Z,6.07
2022-09-07T11:23:11.826Z,8.65
2022-09-07T11:25:59.064Z,9.05
2022-09-07T11:31:45.180Z,6.20
2022-09-07T11:34:24.723Z,7.18
2022-09-07T11:37:09.453Z,8.27
2022-09-07T11:39:45.062Z,9.98
2022-09-07T11:45:29.714Z,7.80
2022-09-07T11:48:04.885Z,8.93
2022-09-07T11:50:39.480Z,6.72
2022-09-07T11:53:18.322Z,6.22
2022-09-07T11:55:49.901Z,5.05
2022-09-07T11:58:37.960Z,6.45
2022-09-07T12:01:48.197Z,9.18
2022-09-07T12:04:45.844Z,8.80
2022-09-07T12:07:38.082Z,11.43
2022-09-07T12:10:26.697Z,15.85
2022-09-07T12:13:24.375Z,7.22
2022-09-07T12:16:15.458Z,5.78
2022-09-07T12:19:13.707Z,4.53
2022-09-07T12:21:43.932Z,7.57
2022-09-07T12:24:35.696Z,7.20
2022-09-07T12:27:10.547Z,7.15
2022-09-07T12:29:45.078Z,8.00
2022-09-07T12:35:00.835Z,4.80
2022-09-07T12:37:27.707Z,4.25
2022-09-07T12:40:28.715Z,9.70
2022-09-07T12:43:14.158Z,6.55
2022-09-07T12:45:40.972Z,7.97
2022-09-07T12:48:16.978Z,6.68
2022-09-07T12:51:00.507Z,5.35
2022-09-07T12:53:46.020Z,7.15
2022-09-07T12:56:34.511Z,7.45
2022-09-07T13:02:28.506Z,10.30
2022-09-07T13:08:01.721Z,6.75
2022-09-07T13:10:37.083Z,8.18
2022-09-07T13:13:07.031Z,4.75
2022-09-07T13:15:40.689Z,6.95
2022-09-07T13:18:34.517Z,7.10
2022-09-07T13:21:07.194Z,7.20
2022-09-07T13:23:39.093Z,5.47
2022-09-07T13:26:09.524Z,9.55
2022-09-07T13:28:40.165Z,13.63
2022-09-07T13:31:15.987Z,8.57
2022-09-07T13:33:51.277Z,7.07
2022-09-07T13:36:37.615Z,6.65
2022-09-07T13:39:12.799Z,7.90
2022-09-07T13:42:00.315Z,8.05
2022-09-07T13:44:33.602Z,5.68
2022-09-07T13:47:25.711Z,9.13
2022-09-07T13:50:05.558Z,6.65
2022-09-07T13:52:42.341Z,8.27
2022-09-07T13:55:34.460Z,6.38
2022-09-07T13:58:19.820Z,6.30
2022-09-07T14:00:54.472Z,6.75
2022-09-07T14:03:24.096Z,8.15
2022-09-07T14:06:27.414Z,17.35
2022-09-07T14:08:58.064Z,9.52
2022-09-07T14:11:29.554Z,6.28
2022-09-07T14:14:17.989Z,7.00
2022-09-07T14:17:00.317Z,9.63
2022-09-07T14:19:42.887Z,9.13
2022-09-07T14:22:16.643Z,6.97
2022-09-07T14:24:51.587Z,8.48
2022-09-07T14:27:32.877Z,8.82
2022-09-07T14:30:28.049Z,4.70
2022-09-07T14:32:58.224Z,6.85
2022-09-07T14:35:28.494Z,6.50
2022-09-07T14:38:03.397Z,8.85
2022-09-07T14:40:30.648Z,4.63
2022-09-07T14:42:58.253Z,7.05
2022-09-07T14:45:39.735Z,8.27
2022-09-07T14:48:13.102Z,11.32
2022-09-07T14:50:46.830Z,9.95
2022-09-07T14:53:34.634Z,7.47
2022-09-07T14:56:08.321Z,16.10
2022-09-07T14:58:35.455Z,6.50
2022-09-07T15:04:01.987Z,7.00
2022-09-07T15:09:35.004Z,7.60
2022-09-07T15:12:27.187Z,8.55
2022-09-07T15:15:37.641Z,9.52
2022-09-07T15:18:42.422Z,14.50
2022-09-07T15:21:09.604Z,9.02
2022-09-07T15:23:36.362Z,12.48
2022-09-07T15:26:03.616Z,8.85
2022-09-07T15:34:15.996Z,12.88
2022-09-07T15:36:53.591Z,10.50
2022-09-07T15:39:25.049Z,7.55
2022-09-07T15:41:52.344Z,7.97
2022-09-07T15:44:24.353Z,11.18
2022-09-07T15:49:39.550Z,9.77
2022-09-07T15:52:09.456Z,11.02
2022-09-07T15:54:39.613Z,52.28
2022-09-07T15:59:54.005Z,7.82
2022-09-07T16:05:08.813Z,9.23
2022-09-07T16:10:22.860Z,7.53
2022-09-07T16:13:10.901Z,10.50
2022-09-07T16:15:45.117Z,9.98
2022-09-07T16:18:16.753Z,9.52
2022-09-07T16:20:45.060Z,5.50
2022-09-07T16:23:15.316Z,15.43
2022-09-07T16:25:54.181Z,22.20
2022-09-07T16:28:21.130Z,26.20
2022-09-07T16:30:48.136Z,18.48
2022-09-07T16:33:15.339Z,18.75
2022-09-07T16:35:42.445Z,27.95
2022-09-07T16:40:56.579Z,19.30
2022-09-07T16:43:23.331Z,18.75
2022-09-07T16:46:03.063Z,24.58
2022-09-07T16:48:35.363Z,25.60
2022-09-07T16:51:03.572Z,30.63
2022-09-07T16:53:32.622Z,67.63
2022-09-07T16:56:10.944Z,65.97
2022-09-07T16:58:45.810Z,64.90
2022-09-07T17:01:18.554Z,64.00
2022-09-07T17:03:46.139Z,73.43
2022-09-07T17:06:14.293Z,68.85
2022-09-07T17:08:42.346Z,38.53
2022-09-07T17:11:11.807Z,54.10
2022-09-07T17:13:40.772Z,55.97
2022-09-07T17:16:10.670Z,64.07
2022-09-07T17:21:28.366Z,89.05
2022-09-07T17:23:55.946Z,107.95
2022-09-07T17:26:26.709Z,150.32
2022-09-07T17:29:00.405Z,157.98
2022-09-07T17:34:17.601Z,164.02
2022-09-07T17:36:44.592Z,141.85
2022-09-07T17:39:16.454Z,166.02
2022-09-07T17:41:44.845Z,177.35
2022-09-07T17:44:12.021Z,181.30
2022-09-07T17:46:38.891Z,238.20
2022-09-07T17:49:10.372Z,259.83
2022-09-07T17:51:37.320Z,196.77
2022-09-07T17:54:10.880Z,146.43
2022-09-07T17:56:39.464Z,156.05
2022-09-07T18:01:54.219Z,120.90
2022-09-07T18:04:22.080Z,99.38
2022-09-07T18:06:49.011Z,109.60
2022-09-07T18:09:16.293Z,88.20
2022-09-07T18:11:45.989Z,78.30
2022-09-07T18:14:14.846Z,83.32
2022-09-07T18:16:43.680Z,73.00
2022-09-07T18:19:11.808Z,71.50
2022-09-07T18:21:40.911Z,74.65
2022-09-07T18:24:20.248Z,61.78
2022-09-07T18:26:50.595Z,55.22
2022-09-07T18:29:33.047Z,105.63
2022-09-07T18:32:08.190Z,68.78
2022-09-07T18:34:37.307Z,66.65
2022-09-07T18:37:04.734Z,57.45
2022-09-07T18:39:32.385Z,60.72
2022-09-07T18:41:59.489Z,57.47
2022-09-07T18:47:21.663Z,66.15
2022-09-07T18:49:50.174Z,53.22
2022-09-07T18:55:07.087Z,58.60
2022-09-07T18:57:35.028Z,68.43
2022-09-07T19:00:05.062Z,69.95
2022-09-07T19:02:31.916Z,69.15
2022-09-07T19:07:45.743Z,69.53
2022-09-07T19:10:14.491Z,74.35
2022-09-07T19:12:45.505Z,64.32
2022-09-07T19:15:13.344Z,74.35
2022-09-07T19:17:40.426Z,64.18
2022-09-07T19:20:07.856Z,70.90
2022-09-07T19:22:34.920Z,71.60
2022-09-07T19:25:01.699Z,57.13
2022-09-07T19:27:29.251Z,59.75
2022-09-07T19:29:56.254Z,59.05
2022-09-07T19:32:23.188Z,80.00
2022-09-07T19:34:54.538Z,126.22
2022-09-07T19:37:26.006Z,132.95
2022-09-07T19:39:55.266Z,150.35
2022-09-07T19:44:51.158Z,118.70
2022-09-07T19:47:18.786Z,135.75
2022-09-07T19:49:45.924Z,136.30
2022-09-07T19:52:12.839Z,135.95
2022-09-07T19:54:40.540Z,160.23
2022-09-07T19:57:07.489Z,163.52
2022-09-07T19:59:34.248Z,77.72
2022-09-07T20:02:01.103Z,75.72
2022-09-07T20:04:28.325Z,91.55
2022-09-07T20:06:55.226Z,79.22
2022-09-07T20:09:22.028Z,65.30
2022-09-07T20:11:49.450Z,61.88
2022-09-07T20:14:16.907Z,52.25
2022-09-07T20:16:44.119Z,43.00
2022-09-07T20:19:14.937Z,41.53
2022-09-07T20:21:42.909Z,31.35
2022-09-07T20:24:14.685Z,35.20
2022-09-07T20:26:41.710Z,39.13
2022-09-07T20:29:26.926Z,30.75
2022-09-07T20:31:57.074Z,32.00
2022-09-07T20:34:24.021Z,37.70
2022-09-07T20:36:51.327Z,34.65
2022-09-07T20:39:19.319Z,37.03
2022-09-07T20:41:46.539Z,33.35
2022-09-07T20:44:14.297Z,42.53
2022-09-07T20:46:41.509Z,40.92
2022-09-07T20:49:08.519Z,35.35
2022-09-07T20:51:35.407Z,44.30
2022-09-07T20:54:02.456Z,44.88
2022-09-07T20:56:29.381Z,38.50
2022-09-07T20:59:01.151Z,41.53
2022-09-07T21:01:29.795Z,51.28
2022-09-07T21:03:58.500Z,41.13
2022-09-07T21:06:27.332Z,37.72
2022-09-07T21:08:55.271Z,38.28
2022-09-07T21:11:25.610Z,40.30
2022-09-07T21:14:17.686Z,42.58
2022-09-07T21:16:44.623Z,42.78
2022-09-07T21:19:11.443Z,33.90
2022-09-07T21:21:41.018Z,40.38
2022-09-07T21:24:22.175Z,35.88
2022-09-07T21:26:50.360Z,36.58
2022-09-07T21:29:18.811Z,35.97
2022-09-07T21:31:46.144Z,36.55
2022-09-07T21:34:13.735Z,36.63
2022-09-07T21:36:40.786Z,32.08
2022-09-07T21:39:12.467Z,36.35
2022-09-07T21:41:42.114Z,36.13
2022-09-07T21:44:12.718Z,32.28
2022-09-07T21:46:39.908Z,36.53
2022-09-07T21:49:06.978Z,35.08
2022-09-07T21:51:33.874Z,34.75
2022-09-07T21:54:01.464Z,31.45
2022-09-07T21:56:31.191Z,34.75
2022-09-07T21:58:59.996Z,35.75
2022-09-07T22:01:28.698Z,35.78
2022-09-07T22:03:58.606Z,33.17
2022-09-07T22:06:27.688Z,37.28
2022-09-07T22:08:54.845Z,31.58
2022-09-07T22:11:23.460Z,34.22
2022-09-07T22:13:55.585Z,30.30
2022-09-07T22:16:23.686Z,35.17
2022-09-07T22:18:50.744Z,34.53
2022-09-07T22:21:20.428Z,34.13
2022-09-07T22:23:50.438Z,35.80
2022-09-07T22:26:22.331Z,39.28
2022-09-07T22:28:49.539Z,35.78
2022-09-07T22:31:19.255Z,34.33
2022-09-07T22:33:47.925Z,32.90
2022-09-07T22:36:19.435Z,37.83
2022-09-07T22:38:48.746Z,32.65
2022-09-07T22:43:44.913Z,33.67
2022-09-07T22:46:12.834Z,42.47
2022-09-07T22:48:40.715Z,39.92
2022-09-07T22:51:08.878Z,39.25
2022-09-07T22:53:37.664Z,37.80
2022-09-07T22:56:10.599Z,31.67
2022-09-07T22:58:38.352Z,37.22
2022-09-07T23:01:06.140Z,35.10
2022-09-07T23:03:34.811Z,35.10
2022-09-07T23:06:02.786Z,31.17
2022-09-07T23:08:30.050Z,31.90
2022-09-07T23:11:04.211Z,34.00
2022-09-07T23:13:33.014Z,37.90
2022-09-07T23:16:07.155Z,35.70
2022-09-07T23:18:34.857Z,33.23
2022-09-07T23:21:02.249Z,29.90
2022-09-07T23:23:29.705Z,32.97
2022-09-07T23:25:56.971Z,34.73
2022-09-07T23:28:23.780Z,33.20
2022-09-07T23:30:51.305Z,38.43
2022-09-07T23:33:18.660Z,33.07
2022-09-07T23:35:59.881Z,30.37
2022-09-07T23:38:27.876Z,32.13
2022-09-07T23:40:55.872Z,34.67
2022-09-07T23:43:23.379Z,33.03
2022-09-07T23:45:50.828Z,38.63
2022-09-07T23:48:17.653Z,32.10
2022-09-07T23:50:45.595Z,34.40
2022-09-07T23:53:13.005Z,32.83
2022-09-07T23:55:40.605Z,33.80
2022-09-07T23:58:08.838Z,35.10
